createdAt,value
2022-08-20T00:00:49.169Z,62.31
2022-08-20T00:03:15.569Z,62.96
2022-08-20T00:05:41.967Z,62.89
2022-08-20T00:08:08.390Z,62.61
2022-08-20T00:10:34.772Z,62.34
2022-08-20T00:13:01.158Z,62.71
2022-08-20T00:15:27.574Z,62.31
2022-08-20T00:17:54.066Z,61.85
2022-08-20T00:20:20.537Z,61.44
2022-08-20T00:22:47.218Z,61.15
2022-08-20T00:25:13.617Z,61.26
2022-08-20T00:27:40.030Z,61.51
2022-08-20T00:30:06.456Z,61.73
2022-08-20T00:32:32.923Z,62.26
2022-08-20T00:34:59.315Z,63.35
2022-08-20T00:37:25.729Z,63.68
2022-08-20T00:39:52.155Z,64.17
2022-08-20T00:42:18.597Z,63.92
2022-08-20T00:44:44.997Z,64.19
2022-08-20T00:47:11.386Z,64.26
2022-08-20T00:49:37.775Z,64.09
2022-08-20T00:52:04.162Z,63.97
2022-08-20T00:54:30.558Z,65.06
2022-08-20T00:56:56.966Z,64.76
2022-08-20T00:59:23.345Z,65.12
2022-08-20T01:01:55.669Z,64.74
2022-08-20T01:04:22.771Z,64.43
2022-08-20T01:06:49.170Z,65.32
2022-08-20T01:09:15.547Z,65.62
2022-08-20T01:11:42.192Z,65.95
2022-08-20T01:14:08.590Z,65.61
2022-08-20T01:16:35.948Z,66.23
2022-08-20T01:19:07.132Z,66.19
2022-08-20T01:21:53.499Z,66.80
2022-08-20T01:24:19.939Z,66.65
2022-08-20T01:26:46.338Z,66.49
2022-08-20T01:29:12.730Z,66.69
2022-08-20T01:31:39.128Z,66.17
2022-08-20T01:34:05.531Z,65.92
2022-08-20T01:36:31.918Z,65.29
2022-08-20T01:38:58.345Z,65.50
2022-08-20T01:41:28.232Z,65.46
2022-08-20T01:43:55.103Z,65.79
2022-08-20T01:46:21.512Z,65.10
2022-08-20T01:48:48.496Z,65.20
2022-08-20T01:51:14.907Z,64.20
2022-08-20T01:53:41.289Z,65.22
2022-08-20T01:56:07.689Z,65.84
2022-08-20T01:58:34.089Z,66.26
2022-08-20T02:01:00.504Z,66.99
2022-08-20T02:03:26.972Z,67.16
2022-08-20T02:05:53.373Z,67.48
2022-08-20T02:08:19.783Z,68.28
2022-08-20T02:10:46.184Z,69.38
2022-08-20T02:13:12.591Z,69.61
2022-08-20T02:15:39.759Z,69.12
2022-08-20T02:18:08.149Z,69.28
2022-08-20T02:20:34.691Z,69.93
2022-08-20T02:23:01.091Z,69.47
2022-08-20T02:25:27.480Z,70.11
2022-08-20T02:27:53.944Z,69.63
2022-08-20T02:30:27.478Z,70.53
2022-08-20T02:32:56.253Z,69.48
2022-08-20T02:35:22.863Z,69.82
2022-08-20T02:37:49.254Z,69.73
2022-08-20T02:40:15.751Z,70.60
2022-08-20T02:42:42.247Z,69.37
2022-08-20T02:45:09.037Z,69.12
2022-08-20T02:47:41.222Z,68.04
2022-08-20T02:50:07.780Z,67.60
2022-08-20T02:52:34.526Z,67.33
2022-08-20T02:55:00.978Z,66.93
2022-08-20T02:57:27.379Z,67.33
2022-08-20T02:59:53.773Z,66.68
2022-08-20T03:02:20.165Z,68.58
2022-08-20T03:04:46.550Z,68.47
2022-08-20T03:07:12.957Z,68.70
2022-08-20T03:09:39.345Z,68.55
2022-08-20T03:12:05.739Z,68.56
2022-08-20T03:14:32.122Z,68.66
2022-08-20T03:16:58.529Z,68.47
2022-08-20T03:19:24.928Z,69.74
2022-08-20T03:21:51.324Z,70.31
2022-08-20T03:24:17.708Z,70.32
2022-08-20T03:26:44.106Z,70.63
2022-08-20T03:29:10.536Z,70.66
2022-08-20T03:31:36.924Z,70.82
2022-08-20T03:34:03.350Z,70.33
2022-08-20T03:36:29.735Z,69.85
2022-08-20T03:38:56.127Z,69.03
2022-08-20T03:41:22.512Z,69.69
2022-08-20T03:43:48.945Z,69.51
2022-08-20T03:46:22.130Z,69.59
2022-08-20T03:48:50.112Z,69.01
2022-08-20T03:51:26.870Z,67.93
2022-08-20T03:53:53.307Z,68.03
2022-08-20T03:56:19.707Z,68.96
2022-08-20T03:58:46.096Z,68.82
2022-08-20T04:01:45.616Z,68.60
2022-08-20T04:03:58.878Z,69.37
2022-08-20T04:06:25.294Z,70.59
2022-08-20T04:08:51.854Z,70.88
2022-08-20T04:11:18.352Z,71.41
2022-08-20T04:13:44.749Z,70.49
2022-08-20T04:16:13.358Z,70.72
2022-08-20T04:18:40.849Z,71.00
2022-08-20T04:21:07.279Z,70.81
2022-08-20T04:23:33.682Z,71.43
2022-08-20T04:26:00.073Z,70.14
2022-08-20T04:28:26.494Z,71.22
2022-08-20T04:30:54.278Z,74.32
2022-08-20T04:33:34.134Z,75.44
2022-08-20T04:36:01.954Z,74.18
2022-08-20T04:38:49.783Z,71.85
2022-08-20T04:41:22.494Z,71.08
2022-08-20T04:43:50.164Z,71.60
2022-08-20T04:46:16.577Z,71.30
2022-08-20T04:48:47.541Z,71.69
2022-08-20T04:51:15.655Z,72.60
2022-08-20T04:53:42.300Z,72.46
2022-08-20T04:56:08.682Z,72.68
2022-08-20T04:58:35.093Z,73.88
2022-08-20T05:01:01.697Z,73.86
2022-08-20T05:03:28.203Z,73.32
2022-08-20T05:05:54.602Z,73.13
2022-08-20T05:08:21.004Z,73.26
2022-08-20T05:10:47.405Z,72.95
2022-08-20T05:13:13.785Z,71.81
2022-08-20T05:15:40.197Z,72.09
2022-08-20T05:18:06.598Z,72.28
2022-08-20T05:20:32.997Z,73.33
2022-08-20T05:22:59.402Z,73.54
2022-08-20T05:25:25.822Z,74.50
2022-08-20T05:27:52.277Z,74.67
2022-08-20T05:30:18.680Z,76.08
2022-08-20T05:32:45.766Z,75.44
2022-08-20T05:35:12.215Z,76.26
2022-08-20T05:37:38.618Z,75.58
2022-08-20T05:40:05.034Z,75.89
2022-08-20T05:42:31.533Z,77.21
2022-08-20T05:44:57.930Z,80.07
2022-08-20T05:47:24.328Z,79.77
2022-08-20T05:49:50.734Z,80.19
2022-08-20T05:52:17.128Z,80.35
2022-08-20T05:54:43.526Z,81.20
2022-08-20T05:57:09.950Z,80.92
2022-08-20T05:59:36.349Z,81.40
2022-08-20T06:02:02.752Z,79.86
2022-08-20T06:04:29.167Z,79.95
2022-08-20T06:06:55.591Z,79.31
2022-08-20T06:09:30.785Z,78.59
2022-08-20T06:11:59.224Z,77.72
2022-08-20T06:14:25.853Z,78.82
2022-08-20T06:16:57.306Z,80.67
2022-08-20T06:19:26.354Z,81.43
2022-08-20T06:21:52.935Z,81.44
2022-08-20T06:24:20.328Z,81.62
2022-08-20T06:26:46.782Z,82.70
2022-08-20T06:29:13.194Z,83.20
2022-08-20T06:31:39.603Z,82.39
2022-08-20T06:34:06.001Z,81.88
2022-08-20T06:36:32.400Z,81.09
2022-08-20T06:38:58.809Z,80.18
2022-08-20T06:41:30.944Z,80.75
2022-08-20T06:44:02.875Z,78.77
2022-08-20T06:46:29.278Z,78.69
2022-08-20T06:48:56.702Z,78.33
2022-08-20T06:51:23.096Z,79.03
2022-08-20T06:53:49.501Z,77.33
2022-08-20T06:56:15.895Z,76.80
2022-08-20T06:58:42.352Z,76.47
2022-08-20T07:01:09.835Z,76.42
2022-08-20T07:03:37.097Z,76.54
2022-08-20T07:06:03.499Z,75.47
2022-08-20T07:08:29.902Z,75.25
2022-08-20T07:10:56.286Z,75.74
2022-08-20T07:13:22.675Z,76.29
2022-08-20T07:15:53.112Z,75.49
2022-08-20T07:18:28.537Z,75.91
2022-08-20T07:20:55.463Z,76.31
2022-08-20T07:23:21.861Z,76.86
2022-08-20T07:25:48.261Z,77.53
2022-08-20T07:28:14.657Z,75.36
2022-08-20T07:30:56.886Z,75.31
2022-08-20T07:33:24.165Z,74.82
2022-08-20T07:35:51.045Z,74.27
2022-08-20T07:38:17.446Z,73.42
2022-08-20T07:40:43.861Z,73.51
2022-08-20T07:43:10.265Z,73.08
2022-08-20T07:45:37.944Z,73.28
2022-08-20T07:48:04.345Z,74.00
2022-08-20T07:50:30.737Z,76.04
2022-08-20T07:52:57.275Z,75.20
2022-08-20T07:55:23.840Z,73.67
2022-08-20T07:57:50.229Z,74.80
2022-08-20T08:00:16.620Z,75.50
2022-08-20T08:02:43.025Z,75.14
2022-08-20T08:05:09.430Z,76.78
2022-08-20T08:07:35.843Z,77.75
2022-08-20T08:10:04.222Z,76.14
2022-08-20T08:12:30.636Z,76.21
2022-08-20T08:14:57.039Z,75.91
2022-08-20T08:17:23.438Z,76.41
2022-08-20T08:19:49.915Z,75.97
2022-08-20T08:22:16.295Z,76.04
2022-08-20T08:24:42.678Z,75.71
2022-08-20T08:27:23.453Z,74.57
2022-08-20T08:29:49.832Z,74.74
2022-08-20T08:32:17.022Z,74.17
2022-08-20T08:34:43.411Z,75.31
2022-08-20T08:37:09.817Z,74.98
2022-08-20T08:39:36.207Z,73.70
2022-08-20T08:42:03.526Z,71.42
2022-08-20T08:44:29.925Z,73.02
2022-08-20T08:46:56.324Z,75.27
2022-08-20T08:49:22.720Z,74.87
2022-08-20T08:51:49.134Z,75.98
2022-08-20T08:54:15.561Z,74.34
2022-08-20T08:56:41.982Z,73.97
2022-08-20T08:59:14.211Z,74.71
2022-08-20T09:01:54.818Z,74.31
2022-08-20T09:04:22.887Z,75.13
2022-08-20T09:06:52.191Z,75.97
2022-08-20T09:09:18.833Z,77.43
2022-08-20T09:11:45.245Z,76.85
2022-08-20T09:14:11.631Z,76.00
2022-08-20T09:16:52.351Z,75.60
2022-08-20T09:19:19.571Z,76.62
2022-08-20T09:21:45.955Z,76.15
2022-08-20T09:24:12.350Z,75.11
2022-08-20T09:26:39.365Z,75.15
2022-08-20T09:29:05.778Z,73.64
2022-08-20T09:31:32.686Z,73.98
2022-08-20T09:33:59.554Z,73.80
2022-08-20T09:36:32.289Z,73.72
2022-08-20T09:38:59.365Z,74.28
2022-08-20T09:41:25.802Z,72.38
2022-08-20T09:43:52.199Z,72.53
2022-08-20T09:46:18.589Z,73.76
2022-08-20T09:48:44.995Z,71.63
2022-08-20T09:51:11.389Z,73.28
2022-08-20T09:53:37.806Z,71.66
2022-08-20T09:56:04.213Z,72.15
2022-08-20T09:58:30.627Z,71.60
2022-08-20T10:00:57.044Z,72.49
2022-08-20T10:03:23.455Z,72.19
2022-08-20T10:05:49.857Z,73.48
2022-08-20T10:08:16.247Z,73.34
2022-08-20T10:10:42.655Z,72.09
2022-08-20T10:13:09.054Z,69.44
2022-08-20T10:15:39.752Z,68.72
2022-08-20T10:18:08.687Z,66.97
2022-08-20T10:20:38.491Z,67.64
2022-08-20T10:23:04.897Z,68.82
2022-08-20T10:25:31.288Z,67.91
2022-08-20T10:27:57.935Z,67.19
2022-08-20T10:30:24.488Z,66.58
2022-08-20T10:32:50.900Z,67.43
2022-08-20T10:35:17.301Z,68.40
2022-08-20T10:37:43.692Z,66.51
2022-08-20T10:40:10.135Z,66.49
2022-08-20T10:42:41.837Z,65.27
2022-08-20T10:45:08.957Z,64.54
2022-08-20T10:47:35.353Z,63.32
2022-08-20T10:50:01.746Z,62.58
2022-08-20T10:52:28.149Z,62.37
2022-08-20T10:54:54.561Z,63.25
2022-08-20T10:57:20.981Z,63.89
2022-08-20T10:59:47.365Z,62.93
2022-08-20T11:02:13.861Z,63.26
2022-08-20T11:04:40.297Z,60.71
2022-08-20T11:07:06.708Z,61.04
2022-08-20T11:09:33.103Z,60.45
2022-08-20T11:11:59.509Z,60.79
2022-08-20T11:14:25.999Z,60.32
2022-08-20T11:16:52.396Z,59.88
2022-08-20T11:19:18.784Z,61.53
2022-08-20T11:21:46.501Z,65.62
2022-08-20T11:24:12.887Z,66.15
2022-08-20T11:26:39.280Z,63.27
2022-08-20T11:29:05.682Z,63.74
2022-08-20T11:31:32.084Z,63.13
2022-08-20T11:33:58.460Z,63.48
2022-08-20T11:36:24.858Z,62.58
2022-08-20T11:38:51.227Z,62.33
2022-08-20T11:41:17.636Z,62.62
2022-08-20T11:43:59.508Z,62.96
2022-08-20T11:46:30.427Z,60.27
2022-08-20T11:48:56.824Z,59.37
2022-08-20T11:51:23.219Z,60.01
2022-08-20T11:53:49.635Z,59.49
2022-08-20T11:56:16.029Z,57.01
2022-08-20T11:58:42.799Z,60.64
2022-08-20T12:01:09.196Z,60.71
2022-08-20T12:03:35.643Z,61.07
2022-08-20T12:06:02.035Z,59.03
2022-08-20T12:08:28.419Z,59.22
2022-08-20T12:10:54.829Z,57.07
2022-08-20T12:13:21.216Z,57.48
2022-08-20T12:15:56.991Z,55.47
2022-08-20T12:18:23.377Z,55.57
2022-08-20T12:20:53.446Z,56.58
2022-08-20T12:23:19.819Z,56.56
2022-08-20T12:25:46.208Z,57.72
2022-08-20T12:28:12.606Z,57.96
2022-08-20T12:30:39.048Z,58.36
2022-08-20T12:33:05.463Z,59.00
2022-08-20T12:35:32.604Z,60.32
2022-08-20T12:38:01.886Z,60.34
2022-08-20T12:40:31.837Z,59.28
2022-08-20T12:42:59.419Z,58.27
2022-08-20T12:45:25.840Z,60.15
2022-08-20T12:47:52.342Z,60.42
2022-08-20T12:50:18.729Z,61.48
2022-08-20T12:52:45.111Z,61.54
2022-08-20T12:55:11.553Z,62.71
2022-08-20T12:57:37.949Z,63.36
2022-08-20T13:00:04.896Z,64.35
2022-08-20T13:02:31.342Z,65.52
2022-08-20T13:05:02.481Z,64.96
2022-08-20T13:07:31.127Z,65.92
2022-08-20T13:09:57.521Z,66.62
2022-08-20T13:12:23.916Z,66.48
2022-08-20T13:14:50.326Z,65.98
2022-08-20T13:17:16.726Z,64.52
2022-08-20T13:19:43.133Z,65.91
2022-08-20T13:22:09.508Z,65.84
2022-08-20T13:24:35.902Z,66.60
2022-08-20T13:27:02.307Z,64.91
2022-08-20T13:29:28.693Z,64.65
2022-08-20T13:31:55.076Z,64.81
2022-08-20T13:34:21.452Z,64.94
2022-08-20T13:36:47.866Z,64.47
2022-08-20T13:39:14.248Z,63.74
2022-08-20T13:41:40.656Z,62.51
2022-08-20T13:44:07.061Z,61.50
2022-08-20T13:46:33.501Z,59.96
2022-08-20T13:48:59.890Z,59.93
2022-08-20T13:51:27.708Z,61.14
2022-08-20T13:53:57.085Z,61.13
2022-08-20T13:56:23.473Z,59.11
2022-08-20T13:58:49.867Z,58.42
2022-08-20T14:01:19.576Z,58.32
2022-08-20T14:03:46.005Z,57.27
2022-08-20T14:06:12.776Z,57.10
2022-08-20T14:08:39.162Z,57.39
2022-08-20T14:11:05.534Z,55.33
2022-08-20T14:13:31.954Z,55.27
2022-08-20T14:15:58.350Z,55.89
2022-08-20T14:18:24.731Z,56.26
2022-08-20T14:20:51.105Z,56.90
2022-08-20T14:23:17.501Z,58.67
2022-08-20T14:25:43.888Z,58.71
2022-08-20T14:28:10.276Z,59.01
2022-08-20T14:30:36.677Z,60.59
2022-08-20T14:33:03.079Z,59.77
2022-08-20T14:35:29.472Z,60.49
2022-08-20T14:37:55.854Z,60.55
2022-08-20T14:40:22.346Z,60.23
2022-08-20T14:42:51.760Z,61.42
2022-08-20T14:45:18.391Z,61.28
2022-08-20T14:47:44.775Z,59.17
2022-08-20T14:50:11.280Z,59.01
2022-08-20T14:52:37.690Z,60.15
2022-08-20T14:55:04.079Z,58.64
2022-08-20T14:57:30.491Z,58.14
2022-08-20T14:59:56.890Z,58.74
2022-08-20T15:02:23.289Z,57.88
2022-08-20T15:04:54.187Z,57.51
2022-08-20T15:07:22.018Z,55.46
2022-08-20T15:09:48.687Z,56.33
2022-08-20T15:12:15.063Z,56.89
2022-08-20T15:14:41.458Z,56.02
2022-08-20T15:17:07.836Z,56.85
2022-08-20T15:19:34.231Z,55.71
2022-08-20T15:22:00.615Z,53.88
2022-08-20T15:24:27.038Z,51.38
2022-08-20T15:26:53.509Z,51.40
2022-08-20T15:29:23.168Z,47.54
2022-08-20T15:31:50.006Z,47.93
2022-08-20T15:34:17.954Z,47.50
2022-08-20T15:36:44.581Z,46.00
2022-08-20T15:39:10.965Z,43.79
2022-08-20T15:41:37.395Z,45.62
2022-08-20T15:44:03.808Z,46.90
2022-08-20T15:46:33.576Z,45.44
2022-08-20T15:49:03.997Z,43.69
2022-08-20T15:51:30.484Z,44.36
2022-08-20T15:53:56.915Z,42.86
2022-08-20T15:56:23.356Z,42.96
2022-08-20T15:58:49.760Z,42.73
2022-08-20T16:01:25.384Z,39.79
2022-08-20T16:03:52.556Z,38.21
2022-08-20T16:06:18.937Z,39.41
2022-08-20T16:08:45.348Z,41.45
2022-08-20T16:11:11.738Z,41.39
2022-08-20T16:13:38.173Z,40.92
2022-08-20T16:16:05.282Z,39.58
2022-08-20T16:18:31.678Z,38.47
2022-08-20T16:21:01.809Z,40.96
2022-08-20T16:23:29.896Z,40.65
2022-08-20T16:25:56.300Z,40.75
2022-08-20T16:28:22.693Z,41.17
2022-08-20T16:30:49.071Z,43.09
2022-08-20T16:33:15.466Z,41.91
2022-08-20T16:35:41.852Z,40.78
2022-08-20T16:38:08.635Z,40.52
2022-08-20T16:40:35.022Z,39.79
2022-08-20T16:43:01.416Z,40.45
2022-08-20T16:45:27.806Z,42.25
2022-08-20T16:47:54.222Z,42.71
2022-08-20T16:50:20.645Z,43.95
2022-08-20T16:52:47.100Z,43.68
2022-08-20T16:55:13.480Z,45.03
2022-08-20T16:57:39.869Z,45.59
2022-08-20T17:00:06.306Z,46.23
2022-08-20T17:02:32.706Z,45.04
2022-08-20T17:05:00.215Z,44.55
2022-08-20T17:07:29.710Z,44.31
2022-08-20T17:09:59.798Z,45.08
2022-08-20T17:12:29.257Z,44.14
2022-08-20T17:14:55.664Z,44.48
2022-08-20T17:17:22.086Z,45.31
2022-08-20T17:19:48.488Z,45.47
2022-08-20T17:22:16.965Z,44.99
2022-08-20T17:24:43.357Z,45.13
2022-08-20T17:27:10.368Z,44.63
2022-08-20T17:29:37.068Z,45.94
2022-08-20T17:32:03.435Z,46.00
2022-08-20T17:34:29.843Z,46.34
2022-08-20T17:36:56.222Z,45.47
2022-08-20T17:39:22.665Z,46.17
2022-08-20T17:41:49.088Z,46.29
2022-08-20T17:44:15.483Z,45.82
2022-08-20T17:46:41.915Z,46.60
2022-08-20T17:49:08.321Z,47.40
2022-08-20T17:51:34.719Z,47.80
2022-08-20T17:54:01.104Z,46.59
2022-08-20T17:56:27.505Z,45.54
2022-08-20T17:58:54.987Z,45.00
2022-08-20T18:01:22.462Z,45.62
2022-08-20T18:03:48.886Z,46.23
2022-08-20T18:06:15.286Z,46.29
2022-08-20T18:08:41.668Z,46.29
2022-08-20T18:11:08.067Z,46.97
2022-08-20T18:13:34.476Z,47.41
2022-08-20T18:16:00.857Z,47.65
2022-08-20T18:18:27.256Z,47.90
2022-08-20T18:20:53.667Z,48.91
2022-08-20T18:23:20.041Z,48.82
2022-08-20T18:25:46.450Z,49.67
2022-08-20T18:28:12.835Z,49.83
2022-08-20T18:30:39.294Z,49.88
2022-08-20T18:33:05.679Z,50.62
2022-08-20T18:35:32.071Z,50.61
2022-08-20T18:37:58.524Z,50.71
2022-08-20T18:40:24.895Z,50.81
2022-08-20T18:42:51.288Z,51.15
2022-08-20T18:45:17.692Z,51.62
2022-08-20T18:47:45.195Z,51.44
2022-08-20T18:50:15.950Z,51.76
2022-08-20T18:52:43.514Z,52.09
2022-08-20T18:55:09.925Z,51.85
2022-08-20T18:57:41.353Z,52.44
2022-08-20T19:00:08.279Z,52.98
2022-08-20T19:02:34.674Z,52.53
2022-08-20T19:05:02.187Z,53.07
2022-08-20T19:07:48.445Z,53.76
2022-08-20T19:10:24.128Z,53.62
2022-08-20T19:12:54.556Z,54.08
2022-08-20T19:15:20.941Z,54.35
2022-08-20T19:17:47.331Z,54.31
2022-08-20T19:20:13.757Z,54.28
2022-08-20T19:22:40.166Z,54.47
2022-08-20T19:25:06.555Z,54.73
2022-08-20T19:27:32.970Z,54.61
2022-08-20T19:29:59.377Z,54.63
2022-08-20T19:32:26.292Z,54.40
2022-08-20T19:34:52.685Z,54.83
2022-08-20T19:37:35.085Z,54.80
2022-08-20T19:40:05.705Z,54.63
2022-08-20T19:42:32.160Z,54.17
2022-08-20T19:44:58.564Z,54.00
2022-08-20T19:47:24.953Z,54.22
2022-08-20T19:49:51.361Z,54.66
2022-08-20T19:52:17.766Z,54.11
2022-08-20T19:54:45.916Z,54.94
2022-08-20T19:57:13.451Z,55.05
2022-08-20T19:59:39.840Z,54.90
2022-08-20T20:02:21.514Z,54.55
2022-08-20T20:04:54.841Z,54.27
2022-08-20T20:07:22.245Z,54.18
2022-08-20T20:09:49.006Z,54.44
2022-08-20T20:12:22.741Z,53.24
2022-08-20T20:14:49.528Z,53.54
2022-08-20T20:17:21.022Z,53.25
2022-08-20T20:19:49.289Z,53.15
2022-08-20T20:22:20.229Z,52.44
2022-08-20T20:24:46.914Z,52.66
2022-08-20T20:27:14.832Z,52.90
2022-08-20T20:29:46.496Z,53.23
2022-08-20T20:32:12.884Z,52.46
2022-08-20T20:34:55.006Z,52.73
2022-08-20T20:37:27.787Z,52.38
2022-08-20T20:40:13.000Z,52.92
2022-08-20T20:42:46.516Z,53.81
2022-08-20T20:45:12.899Z,54.59
2022-08-20T20:47:39.305Z,55.36
2022-08-20T20:50:05.710Z,55.57
2022-08-20T20:52:32.126Z,56.13
2022-08-20T20:54:58.606Z,56.01
2022-08-20T20:57:36.466Z,55.92
2022-08-20T21:00:05.187Z,55.70
2022-08-20T21:02:33.159Z,55.80
2022-08-20T21:04:59.546Z,56.07
2022-08-20T21:07:25.952Z,56.19
2022-08-20T21:09:52.353Z,56.59
2022-08-20T21:12:18.758Z,56.28
2022-08-20T21:14:45.151Z,56.00
2022-08-20T21:17:11.536Z,56.10
2022-08-20T21:19:40.234Z,56.17
2022-08-20T21:22:11.790Z,56.24
2022-08-20T21:24:38.204Z,56.59
2022-08-20T21:27:04.620Z,55.25
2022-08-20T21:29:32.669Z,55.36
2022-08-20T21:31:59.486Z,55.19
2022-08-20T21:34:25.912Z,55.73
2022-08-20T21:36:52.443Z,56.00
2022-08-20T21:39:20.601Z,55.45
2022-08-20T21:41:46.995Z,55.39
2022-08-20T21:44:13.405Z,55.14
2022-08-20T21:46:39.797Z,55.35
2022-08-20T21:49:06.196Z,55.43
2022-08-20T21:51:33.141Z,55.22
2022-08-20T21:53:59.602Z,55.27
2022-08-20T21:56:26.026Z,54.92
2022-08-20T21:58:55.103Z,55.04
2022-08-20T22:01:21.724Z,55.32
2022-08-20T22:03:49.575Z,55.27
2022-08-20T22:06:18.341Z,55.49
2022-08-20T22:08:44.733Z,55.60
2022-08-20T22:11:11.161Z,55.03
2022-08-20T22:13:37.584Z,54.58
2022-08-20T22:16:03.973Z,54.85
2022-08-20T22:18:33.351Z,55.08
2022-08-20T22:20:59.740Z,55.37
2022-08-20T22:23:26.166Z,55.00
2022-08-20T22:25:52.554Z,55.08
2022-08-20T22:28:18.954Z,55.58
2022-08-20T22:30:45.370Z,54.89
2022-08-20T22:33:11.750Z,54.43
2022-08-20T22:35:38.170Z,53.84
2022-08-20T22:38:04.553Z,54.04
2022-08-20T22:40:30.957Z,53.91
2022-08-20T22:42:57.512Z,54.81
2022-08-20T22:45:24.028Z,53.54
2022-08-20T22:47:50.427Z,54.28
2022-08-20T22:50:16.808Z,54.15
2022-08-20T22:52:43.226Z,54.20
2022-08-20T22:55:09.723Z,53.97
2022-08-20T22:57:36.186Z,54.13
2022-08-20T23:00:02.599Z,54.38
2022-08-20T23:02:28.976Z,54.50
2022-08-20T23:04:55.385Z,54.82
2022-08-20T23:07:21.760Z,54.86
2022-08-20T23:09:48.201Z,55.01
2022-08-20T23:12:14.620Z,55.02
2022-08-20T23:14:41.018Z,54.64
2022-08-20T23:17:11.329Z,55.13
2022-08-20T23:19:39.617Z,55.17
2022-08-20T23:22:05.989Z,55.27
2022-08-20T23:24:32.378Z,55.39
2022-08-20T23:26:58.776Z,55.69
2022-08-20T23:29:25.794Z,56.38
2022-08-20T23:31:52.490Z,56.27
2022-08-20T23:34:18.873Z,56.17
2022-08-20T23:36:45.266Z,56.16
2022-08-20T23:39:11.648Z,56.16
2022-08-20T23:41:38.058Z,56.21
2022-08-20T23:44:26.493Z,56.05
2022-08-20T23:46:54.621Z,55.47
2022-08-20T23:49:21.170Z,55.13
2022-08-20T23:51:47.619Z,54.99
2022-08-20T23:54:14.023Z,55.57
2022-08-20T23:56:40.403Z,55.78
2022-08-20T23:59:06.812Z,55.11
